Time,TemperatureF,DewpointF,PressureIn,WindDirection,WindDirectionDegrees,WindSpeedMPH,WindSpeedGustMPH,Humidity,HourlyPrecipIn,Conditions,Clouds,dailyrainin,SoftwareType,DateUTC
2013-02-22 00:04:00,7.9,1.3,29.61,SSW,198,7.6,7.6,74,0.00,,---,0.00,VWS V14.01,2013-02-22 07:04:00,
2013-02-22 00:10:00,7.9,1.3,29.61,South,182,5.4,8.3,74,0.00,,---,0.00,VWS V14.01,2013-02-22 07:10:00,
2013-02-22 00:15:00,7.7,1.2,29.61,SSW,204,10.5,10.5,74,0.00,,---,0.00,VWS V14.01,2013-02-22 07:15:00,
2013-02-22 00:21:00,7.3,0.8,29.64,South,175,5.4,5.8,74,0.00,,---,0.00,VWS V14.01,2013-02-22 07:21:00,
2013-02-22 00:27:00,7.2,0.6,29.64,SSW,195,5.4,6.3,74,0.00,,---,0.00,VWS V14.01,2013-02-22 07:27:00,
2013-02-22 00:33:00,7.2,0.6,29.64,SSW,206,5.8,5.8,74,0.00,,---,0.00,VWS V14.01,2013-02-22 07:33:00,
2013-02-22 00:39:00,7.2,0.6,29.64,SW,224,5.8,7.6,74,0.00,,---,0.00,VWS V14.01,2013-02-22 07:39:00,
2013-02-22 00:44:00,7.2,0.6,29.64,SSW,195,8.1,8.7,74,0.00,,---,0.00,VWS V14.01,2013-02-22 07:44:00,
2013-02-22 00:50:00,7.0,0.5,29.64,South,183,5.8,8.1,74,0.00,,---,0.00,VWS V14.01,2013-02-22 07:50:00,
2013-02-22 00:55:00,6.8,0.3,29.64,SSW,200,6.3,8.3,74,0.00,,---,0.00,VWS V14.01,2013-02-22 07:55:00,
2013-02-22 01:00:00,6.8,0.3,29.64,SSW,210,5.8,6.7,74,0.00,,---,0.00,VWS V14.01,2013-02-22 08:00:00,
2013-02-22 01:05:00,6.4,-0.1,29.64,SSW,198,8.7,8.7,74,0.00,,---,0.00,VWS V14.01,2013-02-22 08:05:00,
2013-02-22 01:11:00,6.3,-0.2,29.64,South,187,8.1,8.1,74,0.00,,---,0.00,VWS V14.01,2013-02-22 08:11:00,
2013-02-22 01:16:00,6.3,-0.2,29.64,SW,224,4.9,6.3,74,0.00,,---,0.00,VWS V14.01,2013-02-22 08:16:00,
2013-02-22 01:21:00,6.3,-0.2,29.64,SW,222,7.6,8.1,74,0.00,,---,0.00,VWS V14.01,2013-02-22 08:21:00,
2013-02-22 01:26:00,6.1,-0.4,29.64,SSW,202,6.3,7.6,74,0.00,,---,0.00,VWS V14.01,2013-02-22 08:26:00,
2013-02-22 01:32:00,5.9,-0.6,29.64,SW,217,6.3,8.1,74,0.00,,---,0.00,VWS V14.01,2013-02-22 08:32:00,
2013-02-22 01:38:00,5.5,-0.9,29.64,South,178,9.2,9.2,74,0.00,,---,0.00,VWS V14.01,2013-02-22 08:38:00,
2013-02-22 01:44:00,5.4,-1.1,29.64,SSW,193,11.0,11.0,74,0.00,,---,0.00,VWS V14.01,2013-02-22 08:44:00,
2013-02-22 01:50:00,5.2,-1.3,29.64,SSW,196,4.9,8.3,74,0.00,,---,0.00,VWS V14.01,2013-02-22 08:50:00,
2013-02-22 01:55:00,5.0,-1.5,29.64,SSE,165,2.2,8.7,74,0.00,,---,0.00,VWS V14.01,2013-02-22 08:55:00,
2013-02-22 02:01:00,5.2,-1.3,29.64,SSW,194,6.3,6.3,74,0.00,,---,0.00,VWS V14.01,2013-02-22 09:01:00,
2013-02-22 02:06:00,5.0,-1.5,29.64,SSW,192,8.7,8.7,74,0.00,,---,0.00,VWS V14.01,2013-02-22 09:06:00,
2013-02-22 02:12:00,4.6,-1.8,29.64,South,178,8.1,9.6,74,0.00,,---,0.00,VWS V14.01,2013-02-22 09:12:00,
2013-02-22 02:18:00,4.6,-1.8,29.64,South,187,6.3,10.1,74,0.00,,---,0.00,VWS V14.01,2013-02-22 09:18:00,
2013-02-22 02:23:00,5.0,-1.5,29.61,SSW,193,5.8,8.1,74,0.00,,---,0.00,VWS V14.01,2013-02-22 09:23:00,
2013-02-22 02:29:00,5.0,-1.5,29.61,SSW,203,5.8,8.3,74,0.00,,---,0.00,VWS V14.01,2013-02-22 09:29:00,
2013-02-22 02:35:00,4.8,-1.6,29.61,SSW,198,5.4,5.8,74,0.00,,---,0.00,VWS V14.01,2013-02-22 09:35:00,
2013-02-22 02:40:00,4.5,-2.0,29.61,SSW,203,10.1,11.0,74,0.00,,---,0.00,VWS V14.01,2013-02-22 09:40:00,
2013-02-22 02:46:00,3.9,-2.5,29.61,SSW,199,8.3,11.0,74,0.00,,---,0.00,VWS V14.01,2013-02-22 09:46:00,
2013-02-22 02:51:00,3.7,-2.7,29.61,SW,218,5.4,5.8,74,0.00,,---,0.00,VWS V14.01,2013-02-22 09:51:00,
2013-02-22 02:56:00,3.6,-2.8,29.61,SSW,200,6.3,8.1,74,0.00,,---,0.00,VWS V14.01,2013-02-22 09:56:00,
2013-02-22 03:01:00,3.4,-3.0,29.61,South,184,6.3,8.3,74,0.00,,---,0.00,VWS V14.01,2013-02-22 10:01:00,
2013-02-22 03:07:00,3.4,-3.0,29.61,South,188,5.4,8.3,74,0.00,,---,0.00,VWS V14.01,2013-02-22 10:07:00,
2013-02-22 03:12:00,3.2,-3.2,29.61,South,185,6.3,8.7,74,0.00,,---,0.00,VWS V14.01,2013-02-22 10:12:00,
2013-02-22 03:18:00,3.2,-3.2,29.61,SW,214,5.4,6.3,74,0.00,,---,0.00,VWS V14.01,2013-02-22 10:18:00,
2013-02-22 03:24:00,3.0,-3.4,29.61,SSW,194,8.3,10.5,74,0.00,,---,0.00,VWS V14.01,2013-02-22 10:24:00,
2013-02-22 03:29:00,3.2,-3.2,29.61,SSW,204,7.2,7.2,74,0.00,,---,0.00,VWS V14.01,2013-02-22 10:29:00,
2013-02-22 03:34:00,3.2,-3.2,29.61,SSW,196,5.4,6.3,74,0.00,,---,0.00,VWS V14.01,2013-02-22 10:34:00,
2013-02-22 03:39:00,3.2,-3.2,29.61,South,189,4.0,6.3,74,0.00,,---,0.00,VWS V14.01,2013-02-22 10:39:00,
2013-02-22 03:45:00,3.4,-3.0,29.61,South,191,3.6,3.6,74,0.00,,---,0.00,VWS V14.01,2013-02-22 10:45:00,
2013-02-22 03:50:00,3.4,-3.0,29.61,South,186,0.0,0.0,74,0.00,,---,0.00,VWS V14.01,2013-02-22 10:50:00,
2013-02-22 03:56:00,3.4,-3.0,29.61,SW,230,0.0,0.0,74,0.00,,---,0.00,VWS V14.01,2013-02-22 10:56:00,
2013-02-22 04:01:00,3.2,-3.2,29.61,SSW,200,0.0,2.7,74,0.00,,---,0.00,VWS V14.01,2013-02-22 11:01:00,
2013-02-22 04:07:00,3.2,-3.2,29.61,South,186,8.1,8.1,74,0.00,,---,0.00,VWS V14.01,2013-02-22 11:07:00,
2013-02-22 04:12:00,3.0,-3.4,29.61,SSW,197,3.1,3.1,74,0.00,,---,0.00,VWS V14.01,2013-02-22 11:12:00,
2013-02-22 04:18:00,2.8,-3.5,29.61,SSW,205,0.0,0.0,74,0.00,,---,0.00,VWS V14.01,2013-02-22 11:18:00,
2013-02-22 04:24:00,2.8,-3.5,29.61,SSW,196,0.0,0.0,74,0.00,,---,0.00,VWS V14.01,2013-02-22 11:24:00,
2013-02-22 04:29:00,2.5,-3.9,29.61,SSW,204,5.8,7.6,74,0.00,,---,0.00,VWS V14.01,2013-02-22 11:29:00,
2013-02-22 04:34:00,2.3,-4.1,29.61,South,184,8.3,8.3,74,0.00,,---,0.00,VWS V14.01,2013-02-22 11:34:00,
2013-02-22 04:39:00,1.9,-4.4,29.61,SSW,199,8.3,10.1,74,0.00,,---,0.00,VWS V14.01,2013-02-22 11:39:00,
2013-02-22 04:45:00,1.9,-4.4,29.61,SSW,196,3.6,3.6,74,0.00,,---,0.00,VWS V14.01,2013-02-22 11:45:00,
2013-02-22 04:50:00,1.6,-4.8,29.61,SSW,203,6.3,6.3,74,0.00,,---,0.00,VWS V14.01,2013-02-22 11:50:00,
2013-02-22 04:55:00,1.4,-4.9,29.61,South,183,4.0,4.0,74,0.00,,---,0.00,VWS V14.01,2013-02-22 11:55:00,
2013-02-22 05:00:00,1.6,-4.8,29.61,SSW,195,7.2,8.1,74,0.00,,---,0.00,VWS V14.01,2013-02-22 12:00:00,
2013-02-22 05:06:00,1.8,-4.6,29.61,SSW,196,3.6,8.7,74,0.00,,---,0.00,VWS V14.01,2013-02-22 12:06:00,
2013-02-22 05:11:00,1.8,-4.6,29.61,SSW,196,0.0,0.0,74,0.00,,---,0.00,VWS V14.01,2013-02-22 12:11:00,
2013-02-22 05:17:00,1.9,-4.4,29.61,SSW,196,0.0,0.0,74,0.00,,---,0.00,VWS V14.01,2013-02-22 12:17:00,
2013-02-22 05:22:00,1.9,-4.4,29.61,SSW,197,0.0,0.0,74,0.00,,---,0.00,VWS V14.01,2013-02-22 12:22:00,
2013-02-22 05:28:00,1.9,-4.4,29.61,SSW,197,0.0,0.0,74,0.00,,---,0.00,VWS V14.01,2013-02-22 12:28:00,
2013-02-22 05:33:00,1.9,-4.4,29.61,South,191,2.2,7.2,74,0.00,,---,0.00,VWS V14.01,2013-02-22 12:33:00,
2013-02-22 05:39:00,1.6,-4.8,29.61,South,189,6.3,8.7,74,0.00,,---,0.00,VWS V14.01,2013-02-22 12:39:00,
2013-02-22 05:45:00,1.2,-5.1,29.61,SSW,200,5.8,5.8,74,0.00,,---,0.00,VWS V14.01,2013-02-22 12:45:00,
2013-02-22 05:50:00,1.0,-5.3,29.61,SSW,193,0.0,0.0,74,0.00,,---,0.00,VWS V14.01,2013-02-22 12:50:00,
2013-02-22 05:56:00,1.0,-5.3,29.61,South,189,0.0,0.0,74,0.00,,---,0.00,VWS V14.01,2013-02-22 12:56:00,
2013-02-22 06:01:00,0.7,-5.6,29.61,SSW,203,4.0,5.8,74,0.00,,---,0.00,VWS V14.01,2013-02-22 13:01:00,
2013-02-22 06:07:00,0.7,-5.6,29.61,South,189,0.0,0.0,74,0.00,,---,0.00,VWS V14.01,2013-02-22 13:07:00,
2013-02-22 06:13:00,0.3,-6.0,29.61,South,183,0.0,0.0,74,0.00,,---,0.00,VWS V14.01,2013-02-22 13:13:00,
2013-02-22 06:18:00,0.3,-6.0,29.61,South,177,4.0,4.5,74,0.00,,---,0.00,VWS V14.01,2013-02-22 13:18:00,
2013-02-22 06:24:00,0.0,-6.3,29.61,SSW,197,4.5,8.3,74,0.00,,---,0.00,VWS V14.01,2013-02-22 13:24:00,
2013-02-22 06:30:00,0.0,-6.3,29.61,South,180,4.0,5.8,74,0.00,,---,0.00,VWS V14.01,2013-02-22 13:30:00,
2013-02-22 06:35:00,-0.2,-6.5,29.61,South,187,8.1,8.1,74,0.00,,---,0.00,VWS V14.01,2013-02-22 13:35:00,
2013-02-22 06:41:00,0.0,-6.3,29.61,SSW,194,5.8,6.3,74,0.00,,---,0.00,VWS V14.01,2013-02-22 13:41:00,
2013-02-22 06:46:00,-0.2,-6.5,29.61,SW,214,5.8,8.3,74,0.00,,---,0.00,VWS V14.01,2013-02-22 13:46:00,
2013-02-22 06:51:00,-0.6,-6.9,29.61,South,182,5.4,8.7,74,0.00,,---,0.00,VWS V14.01,2013-02-22 13:51:00,
2013-02-22 06:56:00,-0.8,-7.0,29.61,South,184,8.3,8.7,74,0.00,,---,0.00,VWS V14.01,2013-02-22 13:56:00,
2013-02-22 07:02:00,-0.6,-6.9,29.61,SSW,193,5.8,10.1,74,0.00,,---,0.00,VWS V14.01,2013-02-22 14:02:00,
2013-02-22 07:07:00,-0.2,-6.5,29.61,SSW,192,7.6,8.7,74,0.00,,---,0.00,VWS V14.01,2013-02-22 14:07:00,
2013-02-22 07:13:00,-0.2,-6.5,29.61,SSW,195,7.6,8.3,74,0.00,,---,0.00,VWS V14.01,2013-02-22 14:13:00,
2013-02-22 07:19:00,-0.2,-6.5,29.61,SSW,192,10.1,11.0,74,0.00,,---,0.00,VWS V14.01,2013-02-22 14:19:00,
2013-02-22 07:24:00,0.0,-6.3,29.61,SSW,201,8.3,8.7,74,0.00,,---,0.00,VWS V14.01,2013-02-22 14:24:00,
2013-02-22 07:29:00,0.1,-6.2,29.61,SSW,195,8.1,8.3,74,0.00,,---,0.00,VWS V14.01,2013-02-22 14:29:00,
2013-02-22 07:35:00,0.3,-6.0,29.61,South,191,7.6,8.3,74,0.00,,---,0.00,VWS V14.01,2013-02-22 14:35:00,
2013-02-22 07:41:00,0.9,-5.5,29.61,SSW,196,7.2,10.1,74,0.00,,---,0.00,VWS V14.01,2013-02-22 14:41:00,
2013-02-22 07:47:00,1.0,-5.3,29.61,SSW,192,5.8,6.3,74,0.00,,---,0.00,VWS V14.01,2013-02-22 14:47:00,
2013-02-22 07:52:00,0.7,-5.6,29.61,SSW,195,7.6,7.6,74,0.00,,---,0.00,VWS V14.01,2013-02-22 14:52:00,
2013-02-22 07:58:00,0.5,-5.8,29.61,South,187,4.9,4.9,74,0.00,,---,0.00,VWS V14.01,2013-02-22 14:58:00,
2013-02-22 08:03:00,0.5,-5.8,29.61,SSW,199,5.4,5.4,74,0.00,,---,0.00,VWS V14.01,2013-02-22 15:03:00,
2013-02-22 08:08:00,0.5,-5.8,29.61,South,178,6.3,8.3,74,0.00,,---,0.00,VWS V14.01,2013-02-22 15:08:00,
2013-02-22 08:13:00,0.7,-5.6,29.61,SSW,197,4.9,4.9,74,0.00,,---,0.00,VWS V14.01,2013-02-22 15:13:00,
2013-02-22 08:19:00,1.2,-5.1,29.61,SSW,194,2.7,4.0,74,0.00,,---,0.00,VWS V14.01,2013-02-22 15:19:00,
2013-02-22 08:24:00,1.2,-5.1,29.61,SSW,194,0.0,0.0,74,0.00,,---,0.00,VWS V14.01,2013-02-22 15:24:00,
2013-02-22 08:29:00,1.4,-4.9,29.61,SSW,194,0.0,0.0,74,0.00,,---,0.00,VWS V14.01,2013-02-22 15:29:00,
2013-02-22 08:34:00,1.6,-4.8,29.61,South,190,0.0,0.0,74,0.00,,---,0.00,VWS V14.01,2013-02-22 15:34:00,
2013-02-22 08:40:00,1.8,-4.6,29.61,South,190,0.0,0.0,74,0.00,,---,0.00,VWS V14.01,2013-02-22 15:40:00,
2013-02-22 08:45:00,1.9,-4.4,29.61,South,190,0.0,0.0,74,0.00,,---,0.00,VWS V14.01,2013-02-22 15:45:00,
2013-02-22 08:51:00,2.3,-4.1,29.61,South,190,0.0,0.0,74,0.00,,---,0.00,VWS V14.01,2013-02-22 15:51:00,
2013-02-22 08:57:00,2.8,-3.5,29.61,South,190,0.0,0.0,74,0.00,,---,0.00,VWS V14.01,2013-02-22 15:57:00,
2013-02-22 09:02:00,3.2,-3.2,29.61,South,190,0.0,0.0,74,0.00,,---,0.00,VWS V14.01,2013-02-22 16:02:00,
2013-02-22 09:08:00,3.7,-2.7,29.61,South,190,0.0,0.0,74,0.00,,---,0.00,VWS V14.01,2013-02-22 16:08:00,
2013-02-22 09:13:00,3.9,-2.5,29.61,South,190,0.0,0.0,74,0.00,,---,0.00,VWS V14.01,2013-02-22 16:13:00,
2013-02-22 09:18:00,4.1,-2.3,29.61,South,190,0.0,0.0,74,0.00,,---,0.00,VWS V14.01,2013-02-22 16:18:00,
2013-02-22 09:23:00,4.3,-2.2,29.61,South,190,0.0,0.0,74,0.00,,---,0.00,VWS V14.01,2013-02-22 16:23:00,
2013-02-22 09:29:00,4.5,-2.0,29.61,South,190,0.0,0.0,74,0.00,,---,0.00,VWS V14.01,2013-02-22 16:29:00,
2013-02-22 09:34:00,5.5,-0.9,29.61,South,190,0.0,0.0,74,0.00,,---,0.00,VWS V14.01,2013-02-22 16:34:00,
2013-02-22 09:40:00,5.9,-0.6,29.61,South,190,0.0,0.0,74,0.00,,---,0.00,VWS V14.01,2013-02-22 16:40:00,
2013-02-22 09:45:00,6.3,-0.2,29.61,South,190,0.0,0.0,74,0.00,,---,0.00,VWS V14.01,2013-02-22 16:45:00,
2013-02-22 09:51:00,6.8,0.3,29.61,South,190,0.0,0.0,74,0.00,,---,0.00,VWS V14.01,2013-02-22 16:51:00,
2013-02-22 09:57:00,7.5,1.0,29.61,SW,227,0.0,0.0,74,0.00,,---,0.00,VWS V14.01,2013-02-22 16:57:00,
2013-02-22 10:03:00,8.2,1.7,29.61,SW,230,0.0,0.0,74,0.00,,---,0.00,VWS V14.01,2013-02-22 17:03:00,
2013-02-22 10:12:00,9.7,3.1,29.61,West,263,0.0,0.0,74,0.00,,---,0.00,VWS V14.01,2013-02-22 17:12:00,
2013-02-22 10:18:00,10.4,3.8,29.61,NW,324,0.0,0.0,74,0.00,,---,0.00,VWS V14.01,2013-02-22 17:18:00,
2013-02-22 10:24:00,11.3,4.6,29.61,NNE,22,0.0,2.7,74,0.00,,---,0.00,VWS V14.01,2013-02-22 17:24:00,
2013-02-22 10:30:00,12.4,5.7,29.61,NE,41,0.0,0.0,74,0.00,,---,0.00,VWS V14.01,2013-02-22 17:30:00,
2013-02-22 10:36:00,12.9,6.2,29.61,NE,41,0.0,0.0,74,0.00,,---,0.00,VWS V14.01,2013-02-22 17:36:00,
2013-02-22 10:41:00,13.5,6.7,29.61,NE,41,0.0,0.0,74,0.00,,---,0.00,VWS V14.01,2013-02-22 17:41:00,
2013-02-22 10:47:00,14.4,2.7,29.61,NE,35,0.0,0.0,59,0.00,,---,0.00,VWS V14.01,2013-02-22 17:47:00,
2013-02-22 10:52:00,15.1,3.7,29.61,NE,42,2.7,4.0,60,0.00,,---,0.00,VWS V14.01,2013-02-22 17:52:00,
2013-02-22 10:57:00,16.2,4.4,29.61,NNW,334,3.6,5.8,59,0.00,,---,0.00,VWS V14.01,2013-02-22 17:57:00,
2013-02-22 11:03:00,17.2,5.4,29.61,NNE,28,2.2,2.2,59,0.00,,---,0.00,VWS V14.01,2013-02-22 18:03:00,
2013-02-22 11:08:00,18.1,5.9,29.61,NNE,26,0.0,0.0,58,0.00,,---,0.00,VWS V14.01,2013-02-22 18:08:00,
2013-02-22 11:14:00,18.5,6.2,29.61,North,353,4.0,5.4,58,0.00,,---,0.00,VWS V14.01,2013-02-22 18:14:00,
2013-02-22 11:19:00,18.9,6.5,29.61,NNE,12,0.0,0.0,58,0.00,,---,0.00,VWS V14.01,2013-02-22 18:19:00,
2013-02-22 11:25:00,19.0,6.3,29.61,NNE,12,0.0,0.0,57,0.00,,---,0.00,VWS V14.01,2013-02-22 18:25:00,
2013-02-22 11:31:00,19.2,6.5,29.61,NNW,331,4.0,4.0,57,0.00,,---,0.00,VWS V14.01,2013-02-22 18:31:00,
2013-02-22 11:36:00,19.6,6.8,29.61,NNE,14,0.0,0.0,57,0.00,,---,0.00,VWS V14.01,2013-02-22 18:36:00,
2013-02-22 11:42:00,19.8,7.0,29.61,NNW,341,2.7,4.0,57,0.00,,---,0.00,VWS V14.01,2013-02-22 18:42:00,
2013-02-22 11:48:00,20.1,7.3,29.61,North,0,2.7,5.8,57,0.00,,---,0.00,VWS V14.01,2013-02-22 18:48:00,
2013-02-22 11:54:00,20.3,7.5,29.61,NNW,337,3.6,3.6,57,0.00,,---,0.00,VWS V14.01,2013-02-22 18:54:00,
2013-02-22 12:00:00,20.7,7.8,29.61,North,4,0.0,2.7,57,0.00,,---,0.00,VWS V14.01,2013-02-22 19:00:00,
2013-02-22 12:06:00,21.0,8.2,29.61,North,0,0.0,0.0,57,0.00,,---,0.00,VWS V14.01,2013-02-22 19:06:00,
2013-02-22 12:11:00,21.6,8.3,29.61,North,1,2.7,4.5,56,0.00,,---,0.00,VWS V14.01,2013-02-22 19:11:00,
2013-02-22 12:16:00,21.7,8.5,29.61,NNE,31,0.0,2.2,56,0.00,,---,0.00,VWS V14.01,2013-02-22 19:16:00,
2013-02-22 12:21:00,21.9,9.0,29.61,NNW,329,5.4,5.4,57,0.00,,---,0.00,VWS V14.01,2013-02-22 19:21:00,
2013-02-22 12:27:00,22.3,9.4,29.61,NNW,331,4.0,4.0,57,0.00,,---,0.00,VWS V14.01,2013-02-22 19:27:00,
2013-02-22 12:32:00,22.6,9.7,29.61,NW,318,0.0,0.0,57,0.00,,---,0.00,VWS V14.01,2013-02-22 19:32:00,
2013-02-22 12:38:00,22.6,9.7,29.61,NNE,33,3.1,3.1,57,0.00,,---,0.00,VWS V14.01,2013-02-22 19:38:00,
2013-02-22 12:44:00,22.5,9.5,29.61,NNE,25,0.0,0.0,57,0.00,,---,0.00,VWS V14.01,2013-02-22 19:44:00,
2013-02-22 12:49:00,22.6,9.7,29.61,North,7,0.0,2.2,57,0.00,,---,0.00,VWS V14.01,2013-02-22 19:49:00,
2013-02-22 12:54:00,22.8,10.3,29.61,North,357,5.4,5.4,58,0.00,,---,0.00,VWS V14.01,2013-02-22 19:54:00,
2013-02-22 12:59:00,22.8,10.3,29.61,North,353,2.2,3.1,58,0.00,,---,0.00,VWS V14.01,2013-02-22 19:59:00,
2013-02-22 13:05:00,23.0,10.8,29.61,North,353,0.0,3.6,59,0.00,,---,0.00,VWS V14.01,2013-02-22 20:05:00,
2013-02-22 13:10:00,23.4,10.8,29.61,NNW,335,2.2,3.6,58,0.00,,---,0.00,VWS V14.01,2013-02-22 20:10:00,
2013-02-22 13:16:00,23.5,11.3,29.61,NNW,343,0.0,0.0,59,0.00,,---,0.00,VWS V14.01,2013-02-22 20:16:00,
2013-02-22 13:21:00,23.7,11.5,29.61,North,353,3.6,4.0,59,0.00,,---,0.00,VWS V14.01,2013-02-22 20:21:00,
2013-02-22 13:26:00,24.1,12.2,29.61,NNW,337,2.2,5.4,60,0.00,,---,0.00,VWS V14.01,2013-02-22 20:26:00,
2013-02-22 13:31:00,24.1,12.2,29.61,NNW,336,0.0,4.0,60,0.00,,---,0.00,VWS V14.01,2013-02-22 20:31:00,
2013-02-22 13:36:00,24.3,12.4,29.58,NNW,335,3.6,4.0,60,0.00,,---,0.00,VWS V14.01,2013-02-22 20:36:00,
2013-02-22 13:42:00,24.3,12.4,29.58,NNW,343,4.0,5.4,60,0.00,,---,0.00,VWS V14.01,2013-02-22 20:42:00,
2013-02-22 13:47:00,24.1,12.2,29.58,NNE,18,3.6,3.6,60,0.00,,---,0.00,VWS V14.01,2013-02-22 20:47:00,
2013-02-22 13:52:00,24.1,12.2,29.58,NW,315,2.7,5.4,60,0.00,,---,0.00,VWS V14.01,2013-02-22 20:52:00,
2013-02-22 13:58:00,24.1,12.2,29.58,NNW,327,0.0,0.0,60,0.00,,---,0.00,VWS V14.01,2013-02-22 20:58:00,
2013-02-22 14:04:00,24.3,12.4,29.58,NW,326,3.1,5.8,60,0.00,,---,0.00,VWS V14.01,2013-02-22 21:04:00,
2013-02-22 14:09:00,24.3,12.8,29.58,NNW,341,2.7,3.1,61,0.00,,---,0.00,VWS V14.01,2013-02-22 21:09:00,
2013-02-22 14:15:00,24.3,12.8,29.58,NNW,343,0.0,0.0,61,0.00,,---,0.00,VWS V14.01,2013-02-22 21:15:00,
2013-02-22 14:20:00,24.4,12.9,29.58,North,353,0.0,0.0,61,0.00,,---,0.00,VWS V14.01,2013-02-22 21:20:00,
2013-02-22 14:26:00,24.6,13.1,29.58,NNW,332,0.0,0.0,61,0.00,,---,0.00,VWS V14.01,2013-02-22 21:26:00,
2013-02-22 14:31:00,24.8,13.6,29.58,NNW,329,0.0,0.0,62,0.00,,---,0.00,VWS V14.01,2013-02-22 21:31:00,
2013-02-22 14:37:00,25.0,13.4,29.58,NNW,328,0.0,0.0,61,0.00,,---,0.00,VWS V14.01,2013-02-22 21:37:00,
2013-02-22 14:43:00,25.0,13.4,29.58,West,271,5.4,5.4,61,0.00,,---,0.00,VWS V14.01,2013-02-22 21:43:00,
2013-02-22 14:48:00,24.6,12.4,29.61,WNW,283,3.6,5.4,59,0.00,,---,0.00,VWS V14.01,2013-02-22 21:48:00,
2013-02-22 14:54:00,24.3,11.6,29.61,WNW,301,8.1,8.3,58,0.00,,---,0.00,VWS V14.01,2013-02-22 21:54:00,
2013-02-22 15:00:00,24.1,11.5,29.61,West,270,8.3,8.3,58,0.00,,---,0.00,VWS V14.01,2013-02-22 22:00:00,
2013-02-22 15:06:00,23.9,11.3,29.61,WNW,283,5.4,10.1,58,0.00,,---,0.00,VWS V14.01,2013-02-22 22:06:00,
2013-02-22 15:11:00,24.1,11.8,29.61,WNW,292,0.0,3.6,59,0.00,,---,0.00,VWS V14.01,2013-02-22 22:11:00,
2013-02-22 15:16:00,24.1,12.2,29.61,NW,309,4.0,6.3,60,0.00,,---,0.00,VWS V14.01,2013-02-22 22:16:00,
2013-02-22 15:22:00,24.1,12.2,29.61,NNW,339,5.4,5.4,60,0.00,,---,0.00,VWS V14.01,2013-02-22 22:22:00,
2013-02-22 15:27:00,24.3,12.8,29.61,NNW,330,4.9,8.1,61,0.00,,---,0.00,VWS V14.01,2013-02-22 22:27:00,
2013-02-22 15:33:00,24.4,12.9,29.61,NNW,338,4.0,5.8,61,0.00,,---,0.00,VWS V14.01,2013-02-22 22:33:00,
2013-02-22 15:39:00,24.6,13.1,29.61,North,0,2.7,6.3,61,0.00,,---,0.00,VWS V14.01,2013-02-22 22:39:00,
2013-02-22 15:44:00,24.8,12.9,29.61,NNW,333,4.0,4.9,60,0.00,,---,0.00,VWS V14.01,2013-02-22 22:44:00,
2013-02-22 15:50:00,24.8,12.5,29.61,NW,306,2.7,5.4,59,0.00,,---,0.00,VWS V14.01,2013-02-22 22:50:00,
2013-02-22 15:56:00,24.8,12.5,29.61,WNW,296,5.4,5.8,59,0.00,,---,0.00,VWS V14.01,2013-02-22 22:56:00,
2013-02-22 16:02:00,24.6,11.2,29.61,SSW,195,4.0,7.6,56,0.00,,---,0.00,VWS V14.01,2013-02-22 23:02:00,
2013-02-22 16:07:00,24.1,9.9,29.61,West,268,8.1,10.5,54,0.00,,---,0.00,VWS V14.01,2013-02-22 23:07:00,
2013-02-22 16:13:00,23.7,8.7,29.61,WNW,288,8.7,8.7,52,0.00,,---,0.00,VWS V14.01,2013-02-22 23:13:00,
2013-02-22 16:18:00,23.5,8.9,29.61,West,272,3.1,5.4,53,0.00,,---,0.00,VWS V14.01,2013-02-22 23:18:00,
2013-02-22 16:23:00,23.5,7.2,29.64,WNW,290,3.6,3.6,49,0.00,,---,0.00,VWS V14.01,2013-02-22 23:23:00,
2013-02-22 16:29:00,23.5,8.1,29.64,WNW,284,5.8,6.3,51,0.00,,---,0.00,VWS V14.01,2013-02-22 23:29:00,
2013-02-22 16:35:00,23.5,7.2,29.64,WNW,291,8.7,8.7,49,0.00,,---,0.00,VWS V14.01,2013-02-22 23:35:00,
2013-02-22 16:41:00,23.5,8.5,29.64,NW,314,5.4,7.6,52,0.00,,---,0.00,VWS V14.01,2013-02-22 23:41:00,
2013-02-22 16:46:00,23.5,8.9,29.64,WSW,258,5.4,8.1,53,0.00,,---,0.00,VWS V14.01,2013-02-22 23:46:00,
2013-02-22 16:52:00,23.5,8.5,29.64,South,185,7.2,8.1,52,0.00,,---,0.00,VWS V14.01,2013-02-22 23:52:00,
2013-02-22 16:57:00,23.4,8.4,29.64,NE,54,3.6,5.4,52,0.00,,---,0.00,VWS V14.01,2013-02-22 23:57:00,
2013-02-22 17:03:00,23.5,8.9,29.64,NW,311,4.9,5.8,53,0.00,,---,0.00,VWS V14.01,2013-02-23 00:03:00,
2013-02-22 17:09:00,23.2,8.2,29.64,WNW,298,3.1,5.8,52,0.00,,---,0.00,VWS V14.01,2013-02-23 00:09:00,
2013-02-22 17:14:00,22.8,7.8,29.64,South,181,5.8,7.6,52,0.00,,---,0.00,VWS V14.01,2013-02-23 00:14:00,
2013-02-22 17:19:00,22.1,5.0,29.64,SW,214,5.4,5.8,47,0.00,,---,0.00,VWS V14.01,2013-02-23 00:19:00,
2013-02-22 17:24:00,21.7,6.0,29.64,WSW,246,3.6,5.4,50,0.00,,---,0.00,VWS V14.01,2013-02-23 00:24:00,
2013-02-22 17:30:00,21.6,7.1,29.64,West,268,7.6,7.6,53,0.00,,---,0.00,VWS V14.01,2013-02-23 00:30:00,
2013-02-22 17:35:00,21.6,7.1,29.64,West,274,4.0,4.0,53,0.00,,---,0.00,VWS V14.01,2013-02-23 00:35:00,
2013-02-22 17:40:00,21.2,4.1,29.64,SSW,197,5.8,5.8,47,0.00,,---,0.00,VWS V14.01,2013-02-23 00:40:00,
2013-02-22 17:45:00,21.0,5.3,29.64,NW,307,4.0,5.4,50,0.00,,---,0.00,VWS V14.01,2013-02-23 00:45:00,
2013-02-22 17:50:00,20.8,6.4,29.64,WSW,256,2.2,6.7,53,0.00,,---,0.00,VWS V14.01,2013-02-23 00:50:00,
2013-02-22 17:55:00,20.7,6.2,29.64,SW,214,8.1,8.1,53,0.00,,---,0.00,VWS V14.01,2013-02-23 00:55:00,
2013-02-22 18:01:00,20.1,3.6,29.64,SSE,164,8.3,8.3,48,0.00,,---,0.00,VWS V14.01,2013-02-23 01:01:00,
2013-02-22 18:06:00,19.8,3.7,29.67,WSW,252,3.1,4.9,49,0.00,,---,0.00,VWS V14.01,2013-02-23 01:06:00,
2013-02-22 18:12:00,19.4,3.4,29.67,South,183,4.0,4.9,49,0.00,,---,0.00,VWS V14.01,2013-02-23 01:12:00,
2013-02-22 18:17:00,19.0,3.9,29.67,WNW,285,0.0,0.0,51,0.00,,---,0.00,VWS V14.01,2013-02-23 01:17:00,
2013-02-22 18:23:00,18.7,4.0,29.67,SSW,205,0.0,0.0,52,0.00,,---,0.00,VWS V14.01,2013-02-23 01:23:00,
2013-02-22 18:28:00,18.5,4.2,29.67,NW,304,5.8,5.8,53,0.00,,---,0.00,VWS V14.01,2013-02-23 01:28:00,
2013-02-22 18:34:00,18.1,3.9,29.67,SW,236,5.8,8.1,53,0.00,,---,0.00,VWS V14.01,2013-02-23 01:34:00,
2013-02-22 18:40:00,17.8,3.6,29.67,WNW,285,5.8,5.8,53,0.00,,---,0.00,VWS V14.01,2013-02-23 01:40:00,
2013-02-22 18:45:00,17.4,3.2,29.67,South,182,3.6,3.6,53,0.00,,---,0.00,VWS V14.01,2013-02-23 01:45:00,
2013-02-22 18:51:00,17.1,3.3,29.67,SE,135,0.0,3.6,54,0.00,,---,0.00,VWS V14.01,2013-02-23 01:51:00,
2013-02-22 18:57:00,16.9,2.7,29.67,NE,42,0.0,0.0,53,0.00,,---,0.00,VWS V14.01,2013-02-23 01:57:00,
2013-02-22 19:02:00,16.7,3.0,29.67,South,176,3.1,4.0,54,0.00,,---,0.00,VWS V14.01,2013-02-23 02:02:00,
2013-02-22 19:08:00,16.3,2.6,29.67,SE,146,0.0,0.0,54,0.00,,---,0.00,VWS V14.01,2013-02-23 02:08:00,
2013-02-22 19:13:00,16.0,0.6,29.67,SE,135,0.0,0.0,50,0.00,,---,0.00,VWS V14.01,2013-02-23 02:13:00,
2013-02-22 19:19:00,15.8,1.3,29.70,NW,318,2.7,3.6,52,0.00,,---,0.00,VWS V14.01,2013-02-23 02:19:00,
2013-02-22 19:25:00,15.4,0.6,29.70,SE,126,4.0,4.0,51,0.00,,---,0.00,VWS V14.01,2013-02-23 02:25:00,
2013-02-22 19:30:00,15.3,-0.5,29.70,South,175,3.1,3.1,49,0.00,,---,0.00,VWS V14.01,2013-02-23 02:30:00,
2013-02-22 19:36:00,14.9,-0.4,29.70,South,169,6.3,6.3,50,0.00,,---,0.00,VWS V14.01,2013-02-23 02:36:00,
2013-02-22 19:42:00,14.5,-0.3,29.70,ESE,107,0.0,0.0,51,0.00,,---,0.00,VWS V14.01,2013-02-23 02:42:00,
2013-02-22 19:47:00,14.5,-0.7,29.70,East,101,0.0,0.0,50,0.00,,---,0.00,VWS V14.01,2013-02-23 02:47:00,
2013-02-22 19:53:00,14.4,-0.9,29.70,SE,124,0.0,0.0,50,0.00,,---,0.00,VWS V14.01,2013-02-23 02:53:00,
2013-02-22 19:58:00,14.0,-0.8,29.70,SSE,157,2.7,3.6,51,0.00,,---,0.00,VWS V14.01,2013-02-23 02:58:00,
2013-02-22 20:04:00,13.8,-0.9,29.70,SE,125,0.0,0.0,51,0.00,,---,0.00,VWS V14.01,2013-02-23 03:04:00,
2013-02-22 20:09:00,13.5,-1.3,29.70,East,101,0.0,0.0,51,0.00,,---,0.00,VWS V14.01,2013-02-23 03:09:00,
2013-02-22 20:15:00,13.5,-1.3,29.70,East,92,0.0,0.0,51,0.00,,---,0.00,VWS V14.01,2013-02-23 03:15:00,
2013-02-22 20:20:00,13.1,-1.6,29.70,ENE,61,0.0,0.0,51,0.00,,---,0.00,VWS V14.01,2013-02-23 03:20:00,
2013-02-22 20:26:00,12.9,-1.8,29.70,ENE,72,0.0,0.0,51,0.00,,---,0.00,VWS V14.01,2013-02-23 03:26:00,
2013-02-22 20:32:00,12.9,-1.8,29.70,ENE,77,0.0,0.0,51,0.00,,---,0.00,VWS V14.01,2013-02-23 03:32:00,
2013-02-22 20:37:00,12.9,-1.8,29.70,ENE,78,0.0,0.0,51,0.00,,---,0.00,VWS V14.01,2013-02-23 03:37:00,
2013-02-22 20:43:00,12.7,-2.0,29.70,East,81,0.0,0.0,51,0.00,,---,0.00,VWS V14.01,2013-02-23 03:43:00,
2013-02-22 20:49:00,12.6,-2.1,29.72,East,81,0.0,0.0,51,0.00,,---,0.00,VWS V14.01,2013-02-23 03:49:00,
2013-02-22 20:55:00,12.0,-2.6,29.72,East,89,0.0,0.0,51,0.00,,---,0.00,VWS V14.01,2013-02-23 03:55:00,
2013-02-22 21:01:00,11.5,-3.1,29.72,SE,137,0.0,0.0,51,0.00,,---,0.00,VWS V14.01,2013-02-23 04:01:00,
2013-02-22 21:07:00,11.3,-3.3,29.72,SSE,152,0.0,0.0,51,0.00,,---,0.00,VWS V14.01,2013-02-23 04:07:00,
2013-02-22 21:12:00,11.1,-3.5,29.72,SE,136,0.0,0.0,51,0.00,,---,0.00,VWS V14.01,2013-02-23 04:12:00,
2013-02-22 21:17:00,10.9,-3.6,29.72,SE,134,0.0,0.0,51,0.00,,---,0.00,VWS V14.01,2013-02-23 04:17:00,
2013-02-22 21:23:00,10.8,-3.8,29.72,SE,134,0.0,0.0,51,0.00,,---,0.00,VWS V14.01,2013-02-23 04:23:00,
2013-02-22 21:29:00,10.0,-4.5,29.72,SE,130,0.0,0.0,51,0.00,,---,0.00,VWS V14.01,2013-02-23 04:29:00,
2013-02-22 21:35:00,9.5,-5.0,29.72,South,190,0.0,0.0,51,0.00,,---,0.00,VWS V14.01,2013-02-23 04:35:00,
2013-02-22 21:40:00,9.1,-5.3,29.72,South,190,0.0,0.0,51,0.00,,---,0.00,VWS V14.01,2013-02-23 04:40:00,
2013-02-22 21:46:00,8.4,-6.0,29.72,SSE,163,0.0,0.0,51,0.00,,---,0.00,VWS V14.01,2013-02-23 04:46:00,
2013-02-22 21:51:00,8.2,-6.2,29.72,South,170,2.7,3.1,51,0.00,,---,0.00,VWS V14.01,2013-02-23 04:51:00,
2013-02-22 21:57:00,8.1,-6.3,29.72,South,186,0.0,0.0,51,0.00,,---,0.00,VWS V14.01,2013-02-23 04:57:00,
2013-02-22 22:00:00,8.1,-6.3,29.72,South,185,0.0,0.0,51,0.00,,---,0.00,VWS V14.01,2013-02-23 05:00:00,
2013-02-22 22:01:00,7.9,-6.5,29.72,South,185,0.0,0.0,51,0.00,,---,0.00,VWS V14.01,2013-02-23 05:01:00,
2013-02-22 22:02:00,7.9,-6.5,29.72,South,176,3.1,4.0,51,0.00,,---,0.00,VWS V14.01,2013-02-23 05:02:00,
2013-02-22 22:08:00,7.7,-6.7,29.72,SSE,162,0.0,0.0,51,0.00,,---,0.00,VWS V14.01,2013-02-23 05:08:00,
2013-02-22 22:13:00,7.2,-7.2,29.72,SSE,163,0.0,0.0,51,0.00,,---,0.00,VWS V14.01,2013-02-23 05:13:00,
2013-02-22 22:19:00,7.2,-7.2,29.72,SSE,168,0.0,0.0,51,0.00,,---,0.00,VWS V14.01,2013-02-23 05:19:00,
2013-02-22 22:24:00,7.0,-7.3,29.72,SSE,168,0.0,0.0,51,0.00,,---,0.00,VWS V14.01,2013-02-23 05:24:00,
2013-02-22 22:29:00,6.8,-7.5,29.72,SSE,168,0.0,0.0,51,0.00,,---,0.00,VWS V14.01,2013-02-23 05:29:00,
2013-02-22 22:35:00,6.8,-7.5,29.72,South,171,0.0,0.0,51,0.00,,---,0.00,VWS V14.01,2013-02-23 05:35:00,
2013-02-22 22:41:00,6.6,-7.7,29.72,South,169,0.0,0.0,51,0.00,,---,0.00,VWS V14.01,2013-02-23 05:41:00,
2013-02-22 22:47:00,6.3,-8.0,29.72,SSE,166,0.0,0.0,51,0.00,,---,0.00,VWS V14.01,2013-02-23 05:47:00,
2013-02-22 22:52:00,6.1,-8.2,29.72,SSE,166,0.0,0.0,51,0.00,,---,0.00,VWS V14.01,2013-02-23 05:52:00,
2013-02-22 22:58:00,5.9,-8.3,29.72,SSE,166,0.0,0.0,51,0.00,,---,0.00,VWS V14.01,2013-02-23 05:58:00,
2013-02-22 23:03:00,5.9,-8.3,29.72,South,173,0.0,0.0,51,0.00,,---,0.00,VWS V14.01,2013-02-23 06:03:00,
2013-02-22 23:09:00,5.9,-8.3,29.72,SSE,165,0.0,0.0,51,0.00,,---,0.00,VWS V14.01,2013-02-23 06:09:00,
2013-02-22 23:14:00,5.5,-8.7,29.72,SSE,164,0.0,0.0,51,0.00,,---,0.00,VWS V14.01,2013-02-23 06:14:00,
2013-02-22 23:20:00,5.5,-8.7,29.72,South,173,0.0,0.0,51,0.00,,---,0.00,VWS V14.01,2013-02-23 06:20:00,
2013-02-22 23:25:00,5.2,-9.0,29.72,South,180,0.0,0.0,51,0.00,,---,0.00,VWS V14.01,2013-02-23 06:25:00,
2013-02-22 23:30:00,4.8,-9.3,29.72,South,188,3.1,3.6,51,0.00,,---,0.00,VWS V14.01,2013-02-23 06:30:00,
2013-02-22 23:37:00,4.5,-9.7,29.72,South,179,2.7,4.0,51,0.00,,---,0.00,VWS V14.01,2013-02-23 06:37:00,
2013-02-22 23:43:00,3.7,-10.3,29.72,SSE,161,0.0,2.2,51,0.00,,---,0.00,VWS V14.01,2013-02-23 06:43:00,
2013-02-22 23:48:00,3.4,-10.7,29.72,SSE,166,0.0,0.0,51,0.00,,---,0.00,VWS V14.01,2013-02-23 06:48:00,
2013-02-22 23:54:00,3.2,-10.8,29.72,SSE,168,0.0,0.0,51,0.00,,---,0.00,VWS V14.01,2013-02-23 06:54:00,
2013-02-22 23:59:00,3.2,-10.8,29.72,SSE,168,0.0,0.0,51,0.00,,---,0.00,VWS V14.01,2013-02-23 06:59:00,